createdAt,value
2019-05-15T00:01:53.036Z,1.90
2019-05-15T00:04:20.592Z,1.93
2019-05-15T00:06:48.609Z,1.67
2019-05-15T00:09:16.116Z,1.70
2019-05-15T00:11:43.272Z,2.33
2019-05-15T00:14:10.419Z,2.27
2019-05-15T00:16:38.606Z,1.73
2019-05-15T00:19:08.497Z,1.90
2019-05-15T00:21:35.393Z,1.80
2019-05-15T00:24:02.769Z,1.70
2019-05-15T00:26:30.165Z,1.73
2019-05-15T00:29:09.526Z,1.90
2019-05-15T00:31:28.982Z,2.10
2019-05-15T00:33:55.651Z,1.83
2019-05-15T00:36:22.895Z,1.70
2019-05-15T00:38:50.143Z,1.90
2019-05-15T00:41:18.520Z,1.60
2019-05-15T00:43:45.928Z,1.87
2019-05-15T00:46:13.082Z,1.77
2019-05-15T00:48:40.524Z,2.00
2019-05-15T00:51:08.452Z,1.80
2019-05-15T00:53:36.283Z,1.63
2019-05-15T00:56:04.146Z,2.00
2019-05-15T00:58:31.309Z,2.00
2019-05-15T01:00:59.155Z,1.63
2019-05-15T01:03:27.853Z,1.80
2019-05-15T01:05:55.273Z,1.80
2019-05-15T01:08:22.781Z,1.90
2019-05-15T01:10:50.183Z,2.13
2019-05-15T01:13:18.978Z,1.70
2019-05-15T01:15:48.771Z,2.00
2019-05-15T01:18:15.853Z,1.93
2019-05-15T01:20:43.443Z,1.93
2019-05-15T01:23:10.727Z,1.73
2019-05-15T01:25:39.042Z,2.23
2019-05-15T01:28:09.098Z,2.07
2019-05-15T01:30:36.142Z,1.77
2019-05-15T01:33:03.632Z,2.07
2019-05-15T01:35:30.875Z,2.13
2019-05-15T01:37:58.591Z,2.10
2019-05-15T01:40:26.183Z,1.73
2019-05-15T01:42:53.350Z,1.87
2019-05-15T01:45:20.804Z,1.90
2019-05-15T01:47:48.115Z,1.87
2019-05-15T01:50:15.630Z,2.20
2019-05-15T01:52:42.879Z,2.03
2019-05-15T01:55:11.237Z,2.20
2019-05-15T01:57:38.714Z,2.50
2019-05-15T02:00:08.691Z,1.97
2019-05-15T02:02:38.819Z,2.13
2019-05-15T02:05:08.435Z,2.00
2019-05-15T02:07:38.755Z,1.93
2019-05-15T02:10:09.144Z,2.13
2019-05-15T02:12:38.480Z,2.23
2019-05-15T02:15:08.351Z,2.50
2019-05-15T02:17:35.010Z,2.20
2019-05-15T02:20:02.903Z,2.13
2019-05-15T02:22:30.379Z,2.10
2019-05-15T02:24:59.182Z,2.50
2019-05-15T02:27:28.764Z,2.03
2019-05-15T02:30:13.045Z,2.07
2019-05-15T02:32:24.877Z,2.17
2019-05-15T02:34:52.263Z,2.10
2019-05-15T02:37:19.634Z,2.10
2019-05-15T02:39:49.326Z,2.10
2019-05-15T02:42:19.031Z,1.90
2019-05-15T02:44:45.245Z,2.40
2019-05-15T02:47:12.494Z,2.30
2019-05-15T02:49:39.939Z,2.50
2019-05-15T02:52:09.739Z,2.17
2019-05-15T02:54:36.542Z,2.40
2019-05-15T02:57:03.911Z,1.93
2019-05-15T02:59:31.264Z,2.33
2019-05-15T03:01:59.379Z,2.17
2019-05-15T03:04:29.044Z,1.80
2019-05-15T03:06:56.116Z,2.40
2019-05-15T03:09:23.460Z,1.87
2019-05-15T03:11:50.940Z,2.30
2019-05-15T03:14:21.365Z,2.60
2019-05-15T03:16:49.702Z,2.10
2019-05-15T03:19:19.321Z,2.10
2019-05-15T03:21:49.695Z,2.43
2019-05-15T03:24:19.168Z,2.50
2019-05-15T03:26:45.709Z,2.20
2019-05-15T03:29:12.874Z,2.63
2019-05-15T03:31:58.874Z,2.37
2019-05-15T03:34:20.414Z,2.93
2019-05-15T03:36:44.263Z,2.87
2019-05-15T03:39:09.683Z,2.67
2019-05-15T03:41:39.278Z,2.50
2019-05-15T03:44:09.222Z,2.13
2019-05-15T03:46:35.734Z,2.17
2019-05-15T03:49:03.190Z,2.23
2019-05-15T03:51:30.653Z,2.30
2019-05-15T03:54:00.288Z,2.57
2019-05-15T03:56:29.574Z,2.53
2019-05-15T03:58:59.780Z,2.37
2019-05-15T04:01:34.292Z,2.60
2019-05-15T04:03:59.808Z,2.50
2019-05-15T04:06:29.642Z,2.70
2019-05-15T04:08:58.554Z,2.60
2019-05-15T04:11:25.469Z,2.20
2019-05-15T04:13:52.912Z,2.33
2019-05-15T04:16:20.188Z,2.47
2019-05-15T04:18:49.064Z,2.00
2019-05-15T04:21:19.685Z,2.60
2019-05-15T04:23:50.050Z,2.47
2019-05-15T04:26:19.394Z,2.00
2019-05-15T04:28:49.429Z,2.13
2019-05-15T04:31:19.187Z,2.57
2019-05-15T04:33:48.870Z,2.13
2019-05-15T04:36:14.802Z,2.53
2019-05-15T04:38:42.061Z,2.40
2019-05-15T04:41:09.967Z,2.20
2019-05-15T04:43:43.727Z,2.07
2019-05-15T04:46:09.802Z,1.87
2019-05-15T04:48:35.966Z,2.23
2019-05-15T04:51:03.367Z,2.30
2019-05-15T04:53:33.150Z,2.00
2019-05-15T04:56:00.066Z,2.20
2019-05-15T04:58:29.724Z,2.03
2019-05-15T05:00:59.909Z,1.90
2019-05-15T05:03:29.211Z,2.27
2019-05-15T05:05:58.842Z,2.30
2019-05-15T05:08:25.225Z,2.07
2019-05-15T05:10:52.560Z,2.10
2019-05-15T05:13:20.497Z,2.20
2019-05-15T05:15:50.267Z,2.13
2019-05-15T05:18:19.053Z,2.67
2019-05-15T05:20:48.475Z,2.00
2019-05-15T05:23:18.886Z,1.87
2019-05-15T05:25:45.686Z,1.83
2019-05-15T05:28:13.314Z,1.60
2019-05-15T05:30:41.005Z,2.07
2019-05-15T05:33:08.597Z,2.07
2019-05-15T05:35:36.139Z,1.90
2019-05-15T05:38:03.505Z,1.70
2019-05-15T05:40:30.923Z,2.00
2019-05-15T05:42:59.611Z,1.97
2019-05-15T05:45:28.795Z,1.80
2019-05-15T05:47:58.059Z,1.70
2019-05-15T05:50:38.758Z,1.87
2019-05-15T05:53:08.823Z,1.80
2019-05-15T05:55:38.314Z,2.00
2019-05-15T05:58:08.039Z,1.80
2019-05-15T06:00:48.610Z,1.90
2019-05-15T06:03:15.269Z,2.10
2019-05-15T06:05:42.737Z,2.03
2019-05-15T06:08:10.373Z,1.73
2019-05-15T06:10:38.756Z,1.80
2019-05-15T06:13:08.683Z,1.50
2019-05-15T06:15:37.918Z,1.47
2019-05-15T06:18:08.342Z,1.47
2019-05-15T06:20:41.065Z,1.63
2019-05-15T06:23:08.521Z,1.47
2019-05-15T06:25:36.060Z,1.50
2019-05-15T06:28:03.811Z,1.90
2019-05-15T06:30:31.497Z,1.70
2019-05-15T06:33:08.376Z,1.70
2019-05-15T06:35:31.188Z,1.70
2019-05-15T06:37:59.062Z,1.53
2019-05-15T06:40:28.893Z,1.47
2019-05-15T06:42:55.968Z,1.70
2019-05-15T06:45:24.378Z,1.50
2019-05-15T06:47:51.638Z,2.03
2019-05-15T06:50:38.980Z,1.53
2019-05-15T06:53:10.456Z,1.80
2019-05-15T06:55:38.613Z,1.67
2019-05-15T06:58:05.380Z,1.47
2019-05-15T07:00:32.841Z,1.33
2019-05-15T07:03:00.248Z,1.63
2019-05-15T07:05:29.455Z,1.60
2019-05-15T07:07:58.535Z,1.37
2019-05-15T07:10:28.668Z,1.17
2019-05-15T07:13:02.827Z,1.30
2019-05-15T07:15:30.275Z,1.43
2019-05-15T07:17:58.102Z,1.53
2019-05-15T07:20:28.484Z,1.53
2019-05-15T07:22:58.458Z,1.07
2019-05-15T07:25:25.442Z,1.03
2019-05-15T07:27:53.049Z,1.10
2019-05-15T07:30:21.360Z,1.03
2019-05-15T07:32:48.889Z,1.07
2019-05-15T07:35:19.154Z,1.10
2019-05-15T07:37:47.862Z,1.20
2019-05-15T07:40:19.340Z,0.90
2019-05-15T07:42:49.011Z,1.00
2019-05-15T07:45:19.796Z,0.90
2019-05-15T07:47:48.938Z,1.10
2019-05-15T07:50:21.839Z,1.20
2019-05-15T07:52:49.091Z,0.73
2019-05-15T07:55:18.511Z,1.03
2019-05-15T07:57:45.951Z,1.07
2019-05-15T08:00:14.680Z,1.20
2019-05-15T08:02:42.943Z,1.30
2019-05-15T08:05:11.285Z,1.10
2019-05-15T08:07:39.073Z,0.90
2019-05-15T08:10:08.734Z,1.00
2019-05-15T08:12:39.274Z,1.20
2019-05-15T08:15:10.090Z,1.20
2019-05-15T08:17:56.070Z,0.93
2019-05-15T08:20:10.638Z,1.00
2019-05-15T08:22:38.486Z,1.43
2019-05-15T08:25:11.361Z,1.20
2019-05-15T08:27:38.292Z,1.27
2019-05-15T08:30:08.941Z,1.10
2019-05-15T08:32:38.652Z,0.93
2019-05-15T08:35:08.077Z,1.20
2019-05-15T08:37:36.303Z,1.00
2019-05-15T08:40:08.402Z,1.33
2019-05-15T08:42:35.454Z,1.37
2019-05-15T08:45:03.627Z,1.20
2019-05-15T08:47:31.088Z,1.10
2019-05-15T08:49:58.244Z,1.03
2019-05-15T08:52:25.628Z,1.30
2019-05-15T08:54:54.686Z,1.20
2019-05-15T08:57:22.035Z,1.20
2019-05-15T08:59:49.380Z,1.10
2019-05-15T09:02:18.577Z,1.40
2019-05-15T09:04:45.687Z,0.83
2019-05-15T09:07:12.931Z,1.20
2019-05-15T09:09:40.209Z,0.90
2019-05-15T09:12:08.283Z,1.30
2019-05-15T09:14:37.934Z,1.43
2019-05-15T09:17:05.203Z,0.87
2019-05-15T09:19:32.356Z,1.27
2019-05-15T09:21:59.726Z,1.00
2019-05-15T09:24:28.637Z,1.20
2019-05-15T09:26:56.143Z,1.20
2019-05-15T09:29:23.303Z,1.23
2019-05-15T09:31:50.579Z,1.13
2019-05-15T09:34:18.603Z,1.20
2019-05-15T09:36:48.428Z,1.13
2019-05-15T09:39:15.355Z,0.97
2019-05-15T09:41:42.697Z,1.20
2019-05-15T09:44:10.100Z,1.07
2019-05-15T09:46:38.275Z,1.20
2019-05-15T09:49:08.610Z,1.10
2019-05-15T09:51:35.215Z,1.13
2019-05-15T09:54:02.703Z,1.20
2019-05-15T09:56:29.984Z,1.10
2019-05-15T09:58:58.208Z,1.10
2019-05-15T10:01:28.528Z,1.23
2019-05-15T10:03:56.262Z,1.10
2019-05-15T10:06:23.414Z,1.20
2019-05-15T10:08:50.748Z,1.40
2019-05-15T10:11:19.780Z,1.37
2019-05-15T10:13:47.420Z,1.10
2019-05-15T10:16:14.673Z,1.53
2019-05-15T10:18:41.866Z,1.10
2019-05-15T10:21:09.336Z,1.43
2019-05-15T10:23:40.045Z,1.27
2019-05-15T10:26:13.262Z,1.33
2019-05-15T10:28:35.357Z,1.30
2019-05-15T10:31:03.785Z,1.30
2019-05-15T10:33:31.036Z,1.30
2019-05-15T10:35:59.119Z,1.43
2019-05-15T10:38:28.516Z,1.50
2019-05-15T10:41:08.521Z,1.30
2019-05-15T10:43:25.084Z,1.30
2019-05-15T10:45:54.694Z,1.40
2019-05-15T10:48:21.577Z,1.43
2019-05-15T10:50:48.927Z,1.40
2019-05-15T10:53:18.773Z,1.47
2019-05-15T10:55:46.265Z,1.23
2019-05-15T10:58:17.076Z,1.30
2019-05-15T11:00:42.791Z,1.57
2019-05-15T11:03:10.163Z,1.30
2019-05-15T11:05:44.922Z,1.50
2019-05-15T11:08:08.323Z,1.40
2019-05-15T11:10:38.556Z,1.70
2019-05-15T11:13:05.686Z,1.60
2019-05-15T11:15:32.975Z,1.27
2019-05-15T11:18:00.405Z,1.27
2019-05-15T11:20:27.685Z,1.43
2019-05-15T11:22:55.034Z,1.30
2019-05-15T11:25:22.561Z,1.30
2019-05-15T11:27:49.903Z,1.30
2019-05-15T11:30:19.287Z,1.40
2019-05-15T11:32:48.659Z,1.43
2019-05-15T11:35:18.642Z,1.33
2019-05-15T11:37:47.137Z,1.47
2019-05-15T11:40:15.864Z,1.20
2019-05-15T11:42:43.213Z,1.53
2019-05-15T11:45:12.273Z,1.27
2019-05-15T11:47:40.277Z,1.50
2019-05-15T11:50:09.713Z,1.40
2019-05-15T11:52:40.120Z,1.33
2019-05-15T11:55:08.355Z,1.30
2019-05-15T11:57:43.624Z,1.40
2019-05-15T12:00:15.085Z,1.27
2019-05-15T12:02:38.415Z,1.23
2019-05-15T12:05:09.269Z,1.30
2019-05-15T12:07:38.169Z,1.30
2019-05-15T12:10:09.838Z,1.20
2019-05-15T12:12:38.306Z,1.60
2019-05-15T12:15:05.869Z,1.40
2019-05-15T12:17:34.209Z,1.43
2019-05-15T12:20:06.438Z,1.30
2019-05-15T12:22:31.216Z,1.10
2019-05-15T12:25:00.521Z,1.33
2019-05-15T12:27:28.308Z,1.00
2019-05-15T12:29:56.196Z,1.30
2019-05-15T12:32:35.564Z,1.40
2019-05-15T12:34:59.786Z,1.80
2019-05-15T12:37:25.337Z,1.67
2019-05-15T12:59:46.025Z,1.70
2019-05-15T13:02:13.271Z,1.57
2019-05-15T13:04:40.434Z,1.30
2019-05-15T13:07:13.806Z,1.10
2019-05-15T13:09:38.149Z,1.20
2019-05-15T13:12:05.730Z,1.10
2019-05-15T13:14:33.108Z,1.20
2019-05-15T13:17:00.577Z,1.13
2019-05-15T13:19:28.609Z,1.13
2019-05-15T13:21:57.838Z,1.10
2019-05-15T13:24:24.989Z,0.90
2019-05-15T13:26:52.409Z,1.27
2019-05-15T13:29:19.787Z,0.90
2019-05-15T13:31:47.848Z,1.03
2019-05-15T13:34:15.329Z,1.00
2019-05-15T13:36:42.580Z,1.10
2019-05-15T13:39:09.953Z,0.97
2019-05-15T13:41:38.607Z,0.80
2019-05-15T13:44:06.069Z,0.80
2019-05-15T13:46:33.333Z,0.90
2019-05-15T13:49:00.598Z,1.10
2019-05-15T13:51:29.028Z,0.90
2019-05-15T13:53:56.671Z,0.90
2019-05-15T13:56:24.012Z,0.97
2019-05-15T13:58:51.352Z,1.33
2019-05-15T14:01:19.633Z,0.90
2019-05-15T14:03:48.337Z,0.73
2019-05-15T14:06:16.066Z,1.07
2019-05-15T14:08:43.270Z,0.70
2019-05-15T14:11:10.684Z,0.57
2019-05-15T14:13:39.185Z,0.70
2019-05-15T14:16:06.817Z,0.73
2019-05-15T14:18:34.164Z,1.00
2019-05-15T14:21:01.424Z,0.97
2019-05-15T14:23:29.579Z,0.90
2019-05-15T14:25:58.867Z,0.90
2019-05-15T14:28:28.331Z,1.00
2019-05-15T14:31:00.905Z,0.70
2019-05-15T14:33:29.149Z,0.97
2019-05-15T14:35:57.756Z,1.00
2019-05-15T14:38:25.148Z,1.00
2019-05-15T14:40:52.518Z,0.83
2019-05-15T14:43:19.662Z,0.93
2019-05-15T14:45:48.043Z,0.90
2019-05-15T14:48:15.577Z,0.97
2019-05-15T14:50:42.967Z,0.70
2019-05-15T14:53:10.356Z,0.80
2019-05-15T14:55:43.222Z,0.80
2019-05-15T14:58:08.318Z,0.80
2019-05-15T15:00:36.020Z,0.70
2019-05-15T15:03:03.304Z,0.93
2019-05-15T15:05:30.995Z,0.80
2019-05-15T15:07:58.682Z,0.90
2019-05-15T15:10:28.925Z,0.80
2019-05-15T15:12:55.683Z,1.17
2019-05-15T15:15:24.961Z,1.00
2019-05-15T15:17:52.146Z,0.90
2019-05-15T15:20:19.711Z,1.00
2019-05-15T15:22:48.508Z,0.87
2019-05-15T15:25:16.132Z,0.93
2019-05-15T15:27:48.720Z,0.93
2019-05-15T15:30:18.794Z,0.80
2019-05-15T15:32:45.437Z,0.90
2019-05-15T15:35:13.201Z,0.70
2019-05-15T15:37:40.382Z,1.10
2019-05-15T15:40:09.084Z,1.03
2019-05-15T15:42:39.083Z,1.30
2019-05-15T15:45:09.015Z,0.87
2019-05-15T15:47:36.022Z,0.87
2019-05-15T15:50:06.315Z,1.10
2019-05-15T15:52:38.206Z,1.10
2019-05-15T15:55:05.163Z,1.00
2019-05-15T15:57:32.570Z,1.20
2019-05-15T16:00:00.089Z,0.80
2019-05-15T16:02:28.085Z,1.07
2019-05-15T16:04:55.556Z,1.00
2019-05-15T16:07:23.417Z,0.70
2019-05-15T16:09:51.446Z,0.90
2019-05-15T16:12:18.724Z,1.03
2019-05-15T16:14:48.677Z,0.90
2019-05-15T16:17:21.248Z,1.10
2019-05-15T16:19:49.277Z,0.90
2019-05-15T16:22:21.886Z,0.80
2019-05-15T16:24:49.461Z,0.93
2019-05-15T16:27:18.271Z,0.73
2019-05-15T16:29:45.576Z,1.00
2019-05-15T16:32:13.103Z,1.00
2019-05-15T16:34:41.103Z,0.90
2019-05-15T16:37:08.928Z,0.90
2019-05-15T16:39:38.182Z,0.93
2019-05-15T16:42:05.371Z,1.20
2019-05-15T16:44:32.642Z,0.93
2019-05-15T16:46:59.915Z,1.20
2019-05-15T16:49:28.481Z,0.83
2019-05-15T16:51:58.161Z,1.00
2019-05-15T16:54:25.105Z,1.10
2019-05-15T16:56:52.291Z,1.17
2019-05-15T16:59:19.866Z,0.67
2019-05-15T17:01:48.911Z,1.00
2019-05-15T17:04:18.176Z,1.00
2019-05-15T17:06:45.668Z,1.00
2019-05-15T17:09:21.007Z,1.10
2019-05-15T17:11:42.078Z,0.90
2019-05-15T17:14:09.531Z,1.17
2019-05-15T17:16:38.686Z,1.10
2019-05-15T17:19:08.561Z,1.17
2019-05-15T17:21:35.340Z,0.80
2019-05-15T17:24:03.525Z,1.00
2019-05-15T17:26:30.783Z,0.90
2019-05-15T17:28:58.345Z,0.80
2019-05-15T17:31:25.760Z,0.90
2019-05-15T17:33:53.031Z,0.90
2019-05-15T17:36:20.319Z,0.83
2019-05-15T17:38:48.711Z,1.20
2019-05-15T17:41:16.154Z,1.17
2019-05-15T17:43:43.397Z,1.00
2019-05-15T17:46:10.850Z,1.20
2019-05-15T17:48:38.833Z,1.07
2019-05-15T17:51:08.942Z,1.30
2019-05-15T17:53:38.272Z,1.03
2019-05-15T17:56:05.690Z,1.00
2019-05-15T17:58:32.860Z,1.40
2019-05-15T18:01:01.668Z,1.07
2019-05-15T18:03:29.116Z,1.10
2019-05-15T18:05:58.844Z,0.97
2019-05-15T18:08:28.476Z,1.10
2019-05-15T18:10:55.030Z,1.00
2019-05-15T18:13:22.401Z,1.10
2019-05-15T18:15:49.691Z,1.10
2019-05-15T18:18:18.676Z,0.77
2019-05-15T18:20:48.301Z,1.00
2019-05-15T18:23:18.743Z,0.90
2019-05-15T18:25:49.186Z,1.13
2019-05-15T18:28:18.632Z,1.00
2019-05-15T18:30:47.904Z,1.13
2019-05-15T18:33:18.392Z,1.10
2019-05-15T18:35:45.432Z,1.10
2019-05-15T18:38:13.190Z,1.10
2019-05-15T18:40:44.578Z,1.17
2019-05-15T18:43:11.953Z,1.00
2019-05-15T18:45:39.462Z,1.60
2019-05-15T18:48:06.838Z,1.07
2019-05-15T18:50:34.021Z,1.20
2019-05-15T18:53:01.412Z,1.10
2019-05-15T18:55:28.938Z,1.37
2019-05-15T18:57:58.410Z,1.10
2019-05-15T19:00:25.860Z,1.03
2019-05-15T19:02:54.231Z,1.20
2019-05-15T19:05:21.732Z,1.13
2019-05-15T19:07:51.628Z,1.20
2019-05-15T19:10:20.028Z,1.30
2019-05-15T19:12:48.408Z,1.23
2019-05-15T19:15:17.908Z,1.30
2019-05-15T19:17:47.473Z,1.20
2019-05-15T19:20:15.372Z,1.20
2019-05-15T19:22:42.679Z,1.12
2019-05-15T19:25:12.862Z,1.60
2019-05-15T19:27:40.093Z,1.30
2019-05-15T19:30:09.351Z,1.40
2019-05-15T19:32:38.866Z,1.23
2019-05-15T19:35:08.052Z,0.97
2019-05-15T19:37:38.413Z,0.93
2019-05-15T19:40:08.389Z,1.37
2019-05-15T19:42:38.159Z,1.40
2019-05-15T19:45:08.595Z,1.50
2019-05-15T19:47:38.399Z,1.17
2019-05-15T19:50:11.285Z,1.57
2019-05-15T19:52:39.029Z,1.50
2019-05-15T19:55:08.899Z,1.30
2019-05-15T19:57:38.727Z,1.50
2019-05-15T20:00:08.291Z,1.40
2019-05-15T20:02:37.902Z,1.40
2019-05-15T20:05:09.221Z,1.10
2019-05-15T20:07:38.992Z,1.27
2019-05-15T20:10:07.504Z,1.43
2019-05-15T20:12:35.654Z,1.47
2019-05-15T20:15:04.071Z,1.80
2019-05-15T20:17:31.666Z,1.20
2019-05-15T20:19:58.956Z,1.50
2019-05-15T20:22:28.342Z,1.63
2019-05-15T20:24:55.883Z,1.40
2019-05-15T20:27:25.270Z,1.70
2019-05-15T20:29:52.674Z,1.63
2019-05-15T20:32:19.940Z,1.43
2019-05-15T20:34:48.329Z,1.80
2019-05-15T20:37:18.303Z,1.73
2019-05-15T20:39:45.589Z,1.67
2019-05-15T20:42:13.826Z,1.70
2019-05-15T20:44:41.088Z,1.50
2019-05-15T20:47:09.028Z,2.03
2019-05-15T20:49:37.799Z,1.97
2019-05-15T20:52:05.427Z,1.83
2019-05-15T20:54:32.735Z,1.60
2019-05-15T20:57:00.349Z,1.90
2019-05-15T20:59:27.772Z,1.63
2019-05-15T21:01:55.339Z,1.30
2019-05-15T21:04:24.387Z,1.70
2019-05-15T21:06:51.785Z,1.43
2019-05-15T21:09:19.032Z,1.70
2019-05-15T21:11:48.279Z,1.20
2019-05-15T21:14:15.531Z,1.53
2019-05-15T21:16:43.054Z,2.03
2019-05-15T21:19:10.400Z,1.53
2019-05-15T21:21:38.641Z,2.30
2019-05-15T21:24:10.277Z,1.60
2019-05-15T21:26:38.249Z,1.60
2019-05-15T21:29:07.755Z,1.60
2019-05-15T21:31:34.629Z,2.03
2019-05-15T21:34:08.507Z,1.50
2019-05-15T21:36:36.125Z,1.27
2019-05-15T21:39:04.918Z,1.20
2019-05-15T21:41:32.707Z,1.50
2019-05-15T21:43:59.946Z,1.50
2019-05-15T21:46:27.406Z,1.30
2019-05-15T21:48:54.974Z,1.50
2019-05-15T21:51:22.115Z,1.50
2019-05-15T21:53:49.373Z,1.50
2019-05-15T21:56:18.819Z,1.57
2019-05-15T21:58:48.357Z,1.33
2019-05-15T22:01:16.035Z,1.37
2019-05-15T22:03:43.284Z,1.30
2019-05-15T22:06:11.280Z,1.80
2019-05-15T22:08:38.670Z,1.50
2019-05-15T22:11:06.248Z,1.67
2019-05-15T22:13:33.607Z,1.80
2019-05-15T22:16:01.368Z,1.60
2019-05-15T22:18:30.332Z,1.70
2019-05-15T22:20:58.574Z,1.57
2019-05-15T22:23:27.874Z,1.67
2019-05-15T22:25:55.181Z,1.60
2019-05-15T22:28:23.073Z,1.47
2019-05-15T22:30:50.846Z,1.57
2019-05-15T22:33:21.025Z,1.80
2019-05-15T22:35:49.633Z,1.93
2019-05-15T22:38:18.090Z,1.70
2019-05-15T22:40:45.741Z,1.50
2019-05-15T22:43:13.080Z,1.73
2019-05-15T22:45:42.287Z,1.50
2019-05-15T22:48:10.489Z,2.17
2019-05-15T22:50:42.408Z,1.77
2019-05-15T22:53:12.227Z,1.83
2019-05-15T22:55:40.550Z,1.70
2019-05-15T22:58:09.638Z,1.80
2019-05-15T23:00:39.255Z,1.50
2019-05-15T23:03:08.424Z,1.80
2019-05-15T23:05:39.142Z,2.00
2019-05-15T23:08:06.750Z,2.07
2019-05-15T23:10:37.931Z,2.10
2019-05-15T23:13:05.796Z,2.07
2019-05-15T23:15:33.713Z,2.03
2019-05-15T23:18:00.938Z,2.03
2019-05-15T23:20:31.497Z,2.30
2019-05-15T23:22:59.409Z,1.80
2019-05-15T23:25:28.692Z,1.87
2019-05-15T23:27:58.187Z,2.10
2019-05-15T23:30:25.113Z,1.77
2019-05-15T23:32:52.374Z,1.97
2019-05-15T23:35:19.648Z,1.70
2019-05-15T23:37:48.571Z,1.87
2019-05-15T23:40:17.979Z,1.70
2019-05-15T23:42:45.675Z,1.53
2019-05-15T23:45:13.410Z,1.70
2019-05-15T23:47:40.697Z,1.50
2019-05-15T23:50:08.357Z,1.70
2019-05-15T23:52:35.610Z,1.80
2019-05-15T23:55:05.130Z,1.60
2019-05-15T23:57:32.301Z,1.43
2019-05-15T23:59:59.675Z,1.63
